Time,TemperatureF,DewpointF,PressureIn,WindDirection,WindDirectionDegrees,WindSpeedMPH,WindSpeedGustMPH,Humidity,HourlyPrecipIn,Conditions,Clouds,dailyrainin,SolarRadiationWatts/m^2,SoftwareType,DateUTC
2013-05-22 00:02:00,64.0,54.0,-100.00,East,97,5.0,8.0,69,0.00,,,0.09,0.000000,,2013-05-22 05:02:00,
2013-05-22 00:32:00,62.0,53.0,-100.00,SE,137,4.0,9.0,72,0.00,,,0.09,0.000000,,2013-05-22 05:32:00,
2013-05-22 00:42:00,62.0,53.0,-100.00,SE,137,4.0,9.0,72,0.00,,,0.09,0.000000,,2013-05-22 05:42:00,
2013-05-22 00:52:00,62.0,53.0,-100.00,SE,137,4.0,9.0,72,0.00,,,0.09,0.000000,,2013-05-22 05:52:00,
2013-05-22 01:01:00,62.0,53.0,-100.00,SE,137,4.0,9.0,72,0.00,,,0.09,0.000000,,2013-05-22 06:01:00,
2013-05-22 01:32:00,60.0,53.0,-100.00,SE,136,6.0,8.0,77,0.00,,,0.09,0.000000,,2013-05-22 06:32:00,
2013-05-22 01:42:00,60.0,53.0,-100.00,SE,136,6.0,8.0,77,0.00,,,0.09,0.000000,,2013-05-22 06:42:00,
2013-05-22 01:52:00,60.0,53.0,-100.00,SE,136,6.0,8.0,77,0.00,,,0.09,0.000000,,2013-05-22 06:52:00,
2013-05-22 02:01:00,60.0,53.0,-100.00,SE,136,6.0,8.0,77,0.00,,,0.09,0.000000,,2013-05-22 07:01:00,
2013-05-22 02:32:00,60.0,54.0,-100.00,SSE,161,7.0,10.0,80,0.00,,,0.09,0.000000,,2013-05-22 07:32:00,
2013-05-22 02:42:00,60.0,54.0,-100.00,SSE,161,7.0,10.0,80,0.00,,,0.09,0.000000,,2013-05-22 07:42:00,
2013-05-22 02:53:00,60.0,54.0,-100.00,SSE,161,7.0,10.0,80,0.00,,,0.09,0.000000,,2013-05-22 07:53:00,
2013-05-22 03:02:00,60.0,54.0,-100.00,SSE,161,7.0,10.0,80,0.00,,,0.09,0.000000,,2013-05-22 08:02:00,
2013-05-22 03:32:00,59.0,54.0,-100.00,South,178,7.0,10.0,83,0.00,,,-99.99,0.000000,,2013-05-22 08:32:00,
2013-05-22 03:42:00,59.0,54.0,-100.00,South,178,7.0,10.0,83,0.00,,,-99.99,0.000000,,2013-05-22 08:42:00,
2013-05-22 03:52:00,59.0,54.0,-100.00,South,178,7.0,10.0,83,0.00,,,-99.99,0.000000,,2013-05-22 08:52:00,
2013-05-22 04:01:00,59.0,54.0,-100.00,South,178,7.0,10.0,83,0.00,,,-99.99,0.000000,,2013-05-22 09:01:00,
2013-05-22 04:33:00,59.0,54.0,-100.00,South,174,8.0,11.0,83,0.00,,,0.09,0.000000,,2013-05-22 09:33:00,
2013-05-22 04:42:00,59.0,54.0,-100.00,South,174,8.0,11.0,83,0.00,,,0.09,0.000000,,2013-05-22 09:42:00,
2013-05-22 04:53:00,59.0,54.0,-100.00,South,174,8.0,11.0,83,0.00,,,0.09,0.000000,,2013-05-22 09:53:00,
2013-05-22 05:03:00,59.0,54.0,-100.00,South,174,8.0,11.0,83,0.00,,,0.09,0.000000,,2013-05-22 10:03:00,
2013-05-22 05:33:00,59.0,54.0,-100.00,South,176,7.0,10.0,82,0.00,,,0.09,0.000000,,2013-05-22 10:33:00,
2013-05-22 05:42:00,59.0,54.0,-100.00,South,176,7.0,10.0,82,0.00,,,0.09,0.000000,,2013-05-22 10:42:00,
2013-05-22 05:52:00,59.0,54.0,-100.00,South,176,7.0,10.0,82,0.00,,,0.09,0.000000,,2013-05-22 10:52:00,
2013-05-22 06:02:00,59.0,54.0,-100.00,South,176,7.0,10.0,82,0.00,,,0.09,0.000000,,2013-05-22 11:02:00,
2013-05-22 06:32:00,57.0,52.0,-100.00,SW,224,4.0,7.0,84,0.00,,,0.09,0.000000,,2013-05-22 11:32:00,
2013-05-22 06:42:00,57.0,52.0,-100.00,SW,224,4.0,7.0,84,0.00,,,0.09,0.000000,,2013-05-22 11:42:00,
2013-05-22 06:52:00,57.0,52.0,-100.00,SW,224,4.0,7.0,84,0.00,,,0.09,0.000000,,2013-05-22 11:52:00,
2013-05-22 07:02:00,57.0,52.0,-100.00,SW,224,4.0,7.0,84,0.00,,,0.09,0.000000,,2013-05-22 12:02:00,
2013-05-22 07:32:00,57.0,52.0,-100.00,SW,235,6.0,7.0,84,0.00,,,0.09,14.000000,,2013-05-22 12:32:00,
2013-05-22 07:42:00,57.0,52.0,-100.00,SW,235,6.0,7.0,84,0.00,,,0.09,14.000000,,2013-05-22 12:42:00,
2013-05-22 07:52:00,57.0,52.0,-100.00,SW,235,6.0,7.0,84,0.00,,,0.09,14.000000,,2013-05-22 12:52:00,
2013-05-22 08:01:00,57.0,52.0,-100.00,SW,235,6.0,7.0,84,0.00,,,0.09,14.000000,,2013-05-22 13:01:00,
2013-05-22 09:32:00,69.0,56.0,-100.00,WNW,298,4.0,6.0,64,-99.99,,,0.09,400.000000,,2013-05-22 14:32:00,
2013-05-22 09:42:00,69.0,56.0,-100.00,WNW,298,4.0,6.0,64,-99.99,,,0.09,400.000000,,2013-05-22 14:42:00,
2013-05-22 09:53:00,69.0,56.0,-100.00,WNW,298,4.0,6.0,64,-99.99,,,0.09,400.000000,,2013-05-22 14:53:00,
2013-05-22 10:01:00,69.0,56.0,-100.00,WNW,298,4.0,6.0,64,-99.99,,,0.09,400.000000,,2013-05-22 15:01:00,
2013-05-22 10:33:00,77.0,58.0,-100.00,SSE,156,3.0,8.0,52,0.00,,,-99.99,655.000000,,2013-05-22 15:33:00,
2013-05-22 10:43:00,77.0,58.0,-100.00,SSE,156,3.0,8.0,52,0.00,,,-99.99,655.000000,,2013-05-22 15:43:00,
2013-05-22 10:53:00,77.0,58.0,-100.00,SSE,156,3.0,8.0,52,0.00,,,-99.99,655.000000,,2013-05-22 15:53:00,
2013-05-22 11:03:00,77.0,58.0,-100.00,SSE,156,3.0,8.0,52,0.00,,,-99.99,655.000000,,2013-05-22 16:03:00,
2013-05-22 11:33:00,81.0,56.0,-100.00,ESE,115,6.0,10.0,42,0.00,,,0.09,865.000000,,2013-05-22 16:33:00,
2013-05-22 11:42:00,81.0,56.0,-100.00,ESE,115,6.0,10.0,42,0.00,,,0.09,865.000000,,2013-05-22 16:42:00,
2013-05-22 11:52:00,81.0,56.0,-100.00,ESE,115,6.0,10.0,42,0.00,,,0.09,865.000000,,2013-05-22 16:52:00,
2013-05-22 12:02:00,81.0,56.0,-100.00,ESE,115,6.0,10.0,42,0.00,,,0.09,865.000000,,2013-05-22 17:02:00,
2013-05-22 12:33:00,85.0,49.0,-100.00,SSE,163,8.0,14.0,29,0.00,,,0.07,1014.000000,,2013-05-22 17:33:00,
2013-05-22 12:42:00,85.0,49.0,-100.00,SSE,163,8.0,14.0,29,0.00,,,0.07,1014.000000,,2013-05-22 17:42:00,
2013-05-22 12:54:00,85.0,49.0,-100.00,SSE,163,8.0,14.0,29,0.00,,,0.07,1014.000000,,2013-05-22 17:54:00,
2013-05-22 13:02:00,85.0,49.0,-100.00,SSE,163,8.0,14.0,29,0.00,,,0.07,1014.000000,,2013-05-22 18:02:00,
2013-05-22 13:34:00,87.0,47.0,-100.00,SSE,165,9.0,15.0,25,0.00,,,0.00,1128.000000,,2013-05-22 18:34:00,
2013-05-22 13:42:00,87.0,47.0,-100.00,SSE,165,9.0,15.0,25,0.00,,,0.00,1128.000000,,2013-05-22 18:42:00,
2013-05-22 13:52:00,87.0,47.0,-100.00,SSE,165,9.0,15.0,25,0.00,,,0.00,1128.000000,,2013-05-22 18:52:00,
2013-05-22 14:02:00,87.0,47.0,-100.00,SSE,165,9.0,15.0,25,0.00,,,0.00,1128.000000,,2013-05-22 19:02:00,
2013-05-22 14:32:00,89.0,44.0,-100.00,SSE,167,9.0,20.0,21,0.00,,,0.00,1156.000000,,2013-05-22 19:32:00,
2013-05-22 14:42:00,89.0,44.0,-100.00,SSE,167,9.0,20.0,21,0.00,,,0.00,1156.000000,,2013-05-22 19:42:00,
2013-05-22 14:52:00,89.0,44.0,-100.00,SSE,167,9.0,20.0,21,0.00,,,0.00,1156.000000,,2013-05-22 19:52:00,
2013-05-22 15:02:00,89.0,44.0,-100.00,SSE,167,9.0,20.0,21,0.00,,,0.00,1156.000000,,2013-05-22 20:02:00,
2013-05-22 15:32:00,91.0,43.0,-100.00,SSE,148,11.0,17.0,19,0.00,,,0.00,1120.000000,,2013-05-22 20:32:00,
2013-05-22 15:42:00,91.0,43.0,-100.00,SSE,148,11.0,17.0,19,0.00,,,0.00,1120.000000,,2013-05-22 20:42:00,
2013-05-22 15:52:00,91.0,43.0,-100.00,SSE,148,11.0,17.0,19,0.00,,,0.00,1120.000000,,2013-05-22 20:52:00,
2013-05-22 16:01:00,91.0,43.0,-100.00,SSE,148,11.0,17.0,19,0.00,,,0.00,1120.000000,,2013-05-22 21:01:00,
2013-05-22 16:33:00,92.0,41.0,-100.00,SSE,148,12.0,21.0,17,0.00,,,0.00,982.000000,,2013-05-22 21:33:00,
2013-05-22 16:42:00,92.0,41.0,-100.00,SSE,148,12.0,21.0,17,0.00,,,0.00,982.000000,,2013-05-22 21:42:00,
2013-05-22 16:53:00,92.0,41.0,-100.00,SSE,148,12.0,21.0,17,0.00,,,0.00,982.000000,,2013-05-22 21:53:00,
2013-05-22 17:03:00,92.0,41.0,-100.00,SSE,148,12.0,21.0,17,0.00,,,0.00,982.000000,,2013-05-22 22:03:00,
2013-05-22 17:33:00,92.0,39.0,-100.00,SE,128,11.0,19.0,16,0.00,,,0.00,514.000000,,2013-05-22 22:33:00,
2013-05-22 17:42:00,92.0,39.0,-100.00,SE,128,11.0,19.0,16,0.00,,,0.00,514.000000,,2013-05-22 22:42:00,
2013-05-22 17:52:00,92.0,39.0,-100.00,SE,128,11.0,19.0,16,0.00,,,0.00,514.000000,,2013-05-22 22:52:00,
2013-05-22 18:02:00,92.0,39.0,-100.00,SE,128,11.0,19.0,16,0.00,,,0.00,514.000000,,2013-05-22 23:02:00,
2013-05-22 18:32:00,92.0,36.0,-100.00,SE,145,11.0,22.0,14,0.00,,,0.00,605.000000,,2013-05-22 23:32:00,
2013-05-22 18:42:00,92.0,36.0,-100.00,SE,145,11.0,22.0,14,0.00,,,0.00,605.000000,,2013-05-22 23:42:00,
2013-05-22 18:53:00,92.0,36.0,-100.00,SE,145,11.0,22.0,14,0.00,,,0.00,605.000000,,2013-05-22 23:53:00,
2013-05-22 19:01:00,92.0,36.0,-100.00,SE,145,11.0,22.0,14,0.00,,,0.00,605.000000,,2013-05-23 00:01:00,
2013-05-22 19:32:00,90.0,36.0,-100.00,ESE,122,10.0,17.0,15,0.00,,,0.00,389.000000,,2013-05-23 00:32:00,
2013-05-22 19:42:00,90.0,36.0,-100.00,ESE,122,10.0,17.0,15,0.00,,,0.00,389.000000,,2013-05-23 00:42:00,
2013-05-22 19:52:00,90.0,36.0,-100.00,ESE,122,10.0,17.0,15,0.00,,,0.00,389.000000,,2013-05-23 00:52:00,
2013-05-22 20:01:00,90.0,36.0,-100.00,ESE,122,10.0,17.0,15,0.00,,,0.00,389.000000,,2013-05-23 01:01:00,
2013-05-22 20:32:00,86.0,43.0,-100.00,ESE,122,9.0,20.0,22,0.00,,,0.00,162.000000,,2013-05-23 01:32:00,
2013-05-22 20:42:00,86.0,43.0,-100.00,ESE,122,9.0,20.0,22,0.00,,,0.00,162.000000,,2013-05-23 01:42:00,
2013-05-22 20:52:00,86.0,43.0,-100.00,ESE,122,9.0,20.0,22,0.00,,,0.00,162.000000,,2013-05-23 01:52:00,
2013-05-22 21:01:00,86.0,43.0,-100.00,ESE,122,9.0,20.0,22,0.00,,,0.00,162.000000,,2013-05-23 02:01:00,
2013-05-22 21:32:00,80.0,51.0,-100.00,ESE,118,10.0,17.0,36,0.00,,,0.00,11.000000,,2013-05-23 02:32:00,
2013-05-22 21:42:00,80.0,51.0,-100.00,ESE,118,10.0,17.0,36,0.00,,,0.00,11.000000,,2013-05-23 02:42:00,
2013-05-22 21:52:00,80.0,51.0,-100.00,ESE,118,10.0,17.0,36,0.00,,,0.00,11.000000,,2013-05-23 02:52:00,
2013-05-22 22:01:00,80.0,51.0,-100.00,ESE,118,10.0,17.0,36,0.00,,,0.00,11.000000,,2013-05-23 03:01:00,
2013-05-22 22:33:00,76.0,54.0,-100.00,ESE,116,8.0,14.0,46,0.00,,,0.00,0.000000,,2013-05-23 03:33:00,
2013-05-22 22:43:00,76.0,54.0,-100.00,ESE,116,8.0,14.0,46,0.00,,,0.00,0.000000,,2013-05-23 03:43:00,
2013-05-22 22:53:00,76.0,54.0,-100.00,ESE,116,8.0,14.0,46,0.00,,,0.00,0.000000,,2013-05-23 03:53:00,
2013-05-22 23:03:00,76.0,54.0,-100.00,ESE,116,8.0,14.0,46,0.00,,,0.00,0.000000,,2013-05-23 04:03:00,
2013-05-22 23:33:00,74.0,56.0,-100.00,ESE,122,9.0,13.0,53,0.00,,,0.00,0.000000,,2013-05-23 04:33:00,
2013-05-22 23:43:00,74.0,56.0,-100.00,ESE,122,9.0,13.0,53,0.00,,,0.00,0.000000,,2013-05-23 04:43:00,
2013-05-22 23:52:00,74.0,56.0,-100.00,ESE,122,9.0,13.0,53,0.00,,,0.00,0.000000,,2013-05-23 04:52:00,